Time;durP1;ratioP1;P1;durP2;ratioP2;P2;SDS_P1;SDS_P2;PMS_P1;PMS_P2;Temp;Humidity;BMP_temperature;BMP_pressure;BME280_temperature;BME280_humidity;BME280_pressure;Samples;Min_cycle;Max_cycle;Signal;HPM_P1;HPM_P2
2021/01/03 00:01:43;;;;;;;22.40;9.30;;;1.90;99.90;;;3.00;80.75;101226.53;5073834;28;20200;-68
2021/01/03 00:04:09;;;;;;;31.53;9.50;;;1.90;99.90;;;2.98;81.06;101238.59;5073633;28;20212;-68
2021/01/03 00:06:35;;;;;;;27.43;9.23;;;1.90;99.90;;;2.97;81.19;101235.13;5072509;28;20207;-68
2021/01/03 00:09:02;;;;;;;26.30;8.20;;;1.90;99.90;;;2.96;80.97;101238.59;5073630;28;20188;-68
2021/01/03 00:11:28;;;;;;;23.87;8.63;;;1.90;99.90;;;2.91;80.61;101240.28;5073510;28;20219;-68
2021/01/03 00:13:55;;;;;;;25.00;8.57;;;1.90;99.90;;;2.90;81.10;101253.22;5072183;28;20195;-67
2021/01/03 00:16:22;;;;;;;22.00;7.87;;;1.80;99.90;;;2.88;81.09;101255.75;5073589;28;20189;-68
2021/01/03 00:18:48;;;;;;;22.40;7.57;;;1.90;99.90;;;2.88;81.01;101262.69;5064699;28;20207;-68
2021/01/03 00:21:15;;;;;;;21.17;7.63;;;1.80;99.90;;;2.88;81.34;101263.53;5073596;28;20277;-68
2021/01/03 00:23:41;;;;;;;21.13;7.47;;;1.90;99.90;;;2.92;81.20;101269.56;5073198;28;20188;-68
2021/01/03 00:26:07;;;;;;;23.40;7.40;;;1.90;99.90;;;2.91;81.24;101263.56;5072021;28;20577;-67
2021/01/03 00:28:34;;;;;;;20.43;7.93;;;1.90;99.90;;;2.92;81.26;101261.81;5073777;28;20188;-68
2021/01/03 00:31:00;;;;;;;23.47;8.53;;;1.90;99.90;;;2.92;81.38;101264.38;5073305;28;20184;-68
2021/01/03 00:33:27;;;;;;;25.60;8.53;;;1.90;99.90;;;2.91;81.15;101257.50;5072712;28;20214;-68
2021/01/03 00:35:54;;;;;;;23.00;8.73;;;2.00;99.90;;;2.90;81.20;101254.06;5073329;28;20188;-67
2021/01/03 00:38:20;;;;;;;21.00;7.77;;;1.90;99.90;;;2.94;81.29;101247.19;5072863;28;20199;-68
2021/01/03 00:40:46;;;;;;;21.13;8.97;;;2.00;99.90;;;2.95;81.08;101241.16;5072931;28;20188;-68
2021/01/03 00:43:14;;;;;;;27.97;9.10;;;2.00;99.90;;;2.97;81.30;101235.13;5072992;28;20586;-69
2021/01/03 00:45:42;;;;;;;23.67;8.67;;;2.00;99.90;;;2.97;81.21;101242.88;5088449;28;20216;-67
2021/01/03 00:48:11;;;;;;;21.77;8.40;;;2.00;99.90;;;2.94;81.08;101234.25;5079849;28;20200;-67
2021/01/03 00:50:39;;;;;;;27.07;8.80;;;2.00;99.90;;;2.88;80.81;101237.69;5057050;28;20226;-68
2021/01/03 00:53:06;;;;;;;25.93;9.00;;;1.90;99.90;;;2.88;80.97;101223.91;5052984;28;20720;-68
2021/01/03 00:55:32;;;;;;;25.57;9.83;;;1.90;99.90;;;2.89;81.09;101210.13;5052908;28;20196;-68
2021/01/03 00:57:58;;;;;;;27.83;9.70;;;1.90;99.90;;;2.95;81.34;101205.00;5051496;28;20240;-68
2021/01/03 01:00:29;;;;;;;27.10;9.63;;;2.00;99.90;;;2.90;81.04;101206.72;5051461;28;20196;-68
2021/01/03 01:02:57;;;;;;;25.17;8.57;;;2.00;99.90;;;2.87;80.84;101201.50;5051416;28;20209;-68
2021/01/03 01:05:24;;;;;;;25.60;8.30;;;2.00;99.90;;;2.83;80.88;101212.72;5051271;28;20216;-68
2021/01/03 01:07:52;;;;;;;26.30;8.47;;;1.90;99.90;;;2.77;81.02;101208.38;5052580;28;20189;-68
2021/01/03 01:10:22;;;;;;;23.13;8.40;;;1.90;99.90;;;2.72;80.92;101204.94;5053234;28;20254;-68
2021/01/03 01:12:49;;;;;;;22.57;8.53;;;1.80;99.90;;;2.69;81.00;101209.22;5051389;28;20221;-68
2021/01/03 01:15:18;;;;;;;25.93;8.77;;;1.80;99.90;;;2.68;80.91;101210.09;5052683;28;20242;-69
2021/01/03 01:17:45;;;;;;;23.17;7.80;;;1.70;99.90;;;2.64;81.35;101219.56;5051662;28;20200;-68
2021/01/03 01:20:14;;;;;;;24.80;9.10;;;1.70;99.90;;;2.64;81.17;101229.03;5058526;28;20257;-68
2021/01/03 01:22:40;;;;;;;28.23;9.27;;;1.70;99.90;;;2.68;81.21;101223.84;5050520;28;20213;-68
2021/01/03 01:25:10;;;;;;;24.23;9.33;;;1.80;99.90;;;2.71;81.13;101228.19;5052131;28;20208;-68
2021/01/03 01:27:36;;;;;;;24.27;8.97;;;1.70;99.90;;;2.70;81.19;101229.06;5052369;28;20208;-68
2021/01/03 01:30:05;;;;;;;23.83;9.17;;;1.70;99.90;;;2.71;81.13;101225.59;5051994;28;20653;-68
2021/01/03 01:32:31;;;;;;;26.83;8.77;;;1.70;99.90;;;2.74;81.13;101225.59;5051952;28;20713;-68
2021/01/03 01:34:57;;;;;;;23.37;9.60;;;1.70;99.90;;;2.74;80.86;101220.44;5051927;28;20255;-68
2021/01/03 01:37:24;;;;;;;22.60;8.60;;;1.70;99.90;;;2.72;80.75;101214.41;5053191;28;20185;-68
2021/01/03 01:39:50;;;;;;;24.17;8.03;;;1.70;99.90;;;2.72;80.89;101220.44;5051949;28;20191;-68
2021/01/03 01:42:18;;;;;;;21.77;7.57;;;1.80;99.90;;;2.69;80.88;101211.81;5052049;28;20693;-68
2021/01/03 01:44:45;;;;;;;23.63;8.80;;;1.70;99.90;;;2.68;80.78;101203.19;5051293;28;20215;-68
2021/01/03 01:47:19;;;;;;;22.80;8.67;;;1.70;99.90;;;2.70;80.66;101218.72;5068199;28;20192;-68
2021/01/03 01:49:47;;;;;;;21.47;8.00;;;1.70;99.90;;;2.67;80.38;101205.78;5059639;28;20202;-68
2021/01/03 01:52:19;;;;;;;25.20;8.07;;;1.80;99.90;;;2.65;80.54;101202.34;5051791;28;20208;-68
2021/01/03 01:54:54;;;;;;;21.53;7.23;;;1.70;99.90;;;2.65;80.68;101197.19;5051799;28;20192;-68
2021/01/03 01:57:29;;;;;;;25.70;8.53;;;1.70;99.90;;;2.65;80.23;101194.59;5050314;28;20189;-68
2021/01/03 02:00:06;;;;;;;27.87;8.80;;;1.80;99.90;;;2.65;80.21;101192.88;5051798;28;20184;-68
2021/01/03 02:02:38;;;;;;;23.23;7.57;;;1.70;99.90;;;2.64;80.21;101192.88;5051815;28;20258;-68
2021/01/03 02:05:14;;;;;;;22.17;6.80;;;1.70;99.90;;;2.63;80.16;101191.16;5050142;28;20247;-68
2021/01/03 02:07:52;;;;;;;20.10;7.07;;;1.70;99.90;;;2.64;80.32;101193.75;5051648;28;20192;-68
2021/01/03 02:10:25;;;;;;;23.70;7.90;;;1.70;99.90;;;2.64;79.97;101188.56;5051388;28;20623;-67
2021/01/03 02:13:15;;;;;;;20.23;7.27;;;1.70;99.90;;;2.63;80.09;101196.31;5051669;28;20708;-68
2021/01/03 02:15:42;;;;;;;20.67;7.40;;;1.70;99.90;;;2.61;80.33;101187.69;5050108;28;20189;-68
2021/01/03 02:18:12;;;;;;;23.33;8.53;;;1.60;99.90;;;2.58;80.38;101187.69;5059743;28;20188;-68
2021/01/03 02:20:55;;;;;;;25.70;7.47;;;1.60;99.90;;;2.52;80.07;101179.09;5067433;28;20193;-68
2021/01/03 02:23:38;;;;;;;22.00;7.60;;;1.60;99.90;;;2.48;80.41;101164.44;5070742;28;20317;-68
2021/01/03 02:26:08;;;;;;;24.70;7.73;;;1.50;99.90;;;2.41;80.54;101160.09;5071100;28;20688;-68
2021/01/03 02:28:41;;;;;;;22.97;7.80;;;1.50;99.90;;;2.34;80.74;101181.59;5070878;28;20184;-67
2021/01/03 02:31:09;;;;;;;26.23;8.53;;;1.50;99.90;;;2.28;80.93;101179.00;5071111;28;20188;-68
2021/01/03 02:33:41;;;;;;;27.33;7.53;;;1.40;99.90;;;2.27;81.24;101192.78;5070853;28;20183;-68
2021/01/03 02:36:14;;;;;;;23.80;7.67;;;1.40;99.90;;;2.30;81.29;101177.28;5071093;28;20241;-68
2021/01/03 02:38:49;;;;;;;25.53;7.50;;;1.40;99.90;;;2.34;81.24;101185.91;5069535;28;20200;-68
2021/01/03 02:41:18;;;;;;;26.43;7.40;;;1.40;99.90;;;2.37;81.37;101184.19;5069888;28;20202;-68
2021/01/03 02:43:45;;;;;;;21.80;7.33;;;1.40;99.90;;;2.41;81.17;101180.75;5071228;28;20187;-68
2021/01/03 02:46:11;;;;;;;23.67;8.20;;;1.40;99.90;;;2.39;81.17;101187.63;5069590;28;20227;-68
2021/01/03 02:48:38;;;;;;;24.10;7.93;;;1.40;99.90;;;2.37;81.34;101183.34;5062641;28;20213;-68
2021/01/03 02:51:04;;;;;;;23.97;7.33;;;1.40;99.90;;;2.36;81.25;101186.78;5070377;28;20551;-68
2021/01/03 02:53:30;;;;;;;21.47;7.23;;;1.40;99.90;;;2.36;81.14;101192.78;5070951;28;20215;-68
2021/01/03 02:55:56;;;;;;;24.77;7.40;;;1.50;99.90;;;2.34;81.08;101179.00;5071423;28;20537;-68
2021/01/03 02:58:23;;;;;;;20.10;7.40;;;1.50;99.90;;;2.35;81.19;101180.75;5077455;28;20662;-68
2021/01/03 03:00:50;;;;;;;21.40;7.07;;;1.50;99.90;;;2.36;81.40;101184.19;5077675;28;20180;-68
2021/01/03 03:03:16;;;;;;;19.07;7.33;;;1.50;99.90;;;2.36;81.28;101182.47;5077261;28;20261;-68
2021/01/03 03:05:42;;;;;;;26.23;8.50;;;1.50;99.90;;;2.40;81.53;101181.63;5076148;28;20207;-68
2021/01/03 03:08:08;;;;;;;22.30;7.70;;;1.50;99.90;;;2.40;81.33;101176.47;5077239;28;20191;-68
2021/01/03 03:10:35;;;;;;;22.90;7.73;;;1.50;99.90;;;2.45;81.39;101184.22;5076380;28;20192;-68
2021/01/03 03:13:02;;;;;;;23.20;8.37;;;1.50;99.90;;;2.47;81.31;101187.66;5077523;28;20208;-68
2021/01/03 03:15:32;;;;;;;20.70;7.00;;;1.50;99.90;;;2.45;80.98;101179.91;5076167;28;20200;-68
2021/01/03 03:18:00;;;;;;;24.27;7.17;;;1.50;99.90;;;2.45;80.89;101179.03;5080509;28;20196;-68
2021/01/03 03:20:26;;;;;;;19.23;6.50;;;1.60;99.90;;;2.41;81.25;101175.59;5071623;28;20195;-68
2021/01/03 03:22:53;;;;;;;19.07;6.37;;;1.50;99.90;;;2.44;81.23;101175.59;5077153;28;20242;-67
2021/01/03 03:25:21;;;;;;;21.83;6.97;;;1.60;99.90;;;2.47;81.13;101174.75;5077428;28;20243;-68
2021/01/03 03:27:48;;;;;;;20.07;6.20;;;1.60;99.90;;;2.51;81.09;101171.34;5077214;28;20195;-68
2021/01/03 03:30:19;;;;;;;20.40;7.00;;;1.60;99.90;;;2.54;80.99;101168.75;5077014;28;20187;-68
2021/01/03 03:32:51;;;;;;;20.47;7.17;;;1.60;99.90;;;2.54;81.06;101164.44;5077158;28;20204;-68
2021/01/03 03:35:20;;;;;;;20.93;6.90;;;1.60;99.90;;;2.57;80.81;101153.25;5077279;28;20188;-68
2021/01/03 03:37:46;;;;;;;23.77;8.03;;;1.70;99.90;;;2.58;80.67;101148.09;5077024;28;20190;-68
2021/01/03 03:40:14;;;;;;;24.63;7.57;;;1.70;99.90;;;2.61;80.63;101138.63;5075620;28;20192;-68
2021/01/03 03:42:40;;;;;;;19.33;7.63;;;1.70;99.90;;;2.65;80.56;101145.53;5075726;28;20231;-68
2021/01/03 03:45:08;;;;;;;22.53;8.17;;;1.80;99.90;;;2.70;80.52;101157.56;5076945;28;20211;-68
2021/01/03 03:47:35;;;;;;;24.13;7.53;;;1.80;99.90;;;2.72;80.40;101147.25;5068277;28;20684;-68
2021/01/03 03:50:04;;;;;;;20.70;7.90;;;1.80;99.90;;;2.68;80.48;101143.78;5064808;28;20200;-67
2021/01/03 03:52:30;;;;;;;24.77;7.60;;;1.90;99.90;;;2.71;80.29;101153.28;5056836;28;20197;-68
2021/01/03 03:54:57;;;;;;;24.10;7.63;;;1.90;99.90;;;2.70;80.18;101149.00;5056986;28;20185;-68
2021/01/03 03:57:23;;;;;;;28.77;7.10;;;1.90;99.90;;;2.70;80.12;101151.56;5056807;28;20676;-67
2021/01/03 03:59:49;;;;;;;25.27;7.13;;;1.80;99.90;;;2.70;79.88;101149.00;5055301;28;20203;-68
2021/01/03 04:02:16;;;;;;;19.17;6.87;;;1.80;99.90;;;2.67;79.91;101141.22;5056832;28;20200;-68
2021/01/03 04:04:45;;;;;;;22.07;6.50;;;1.80;99.90;;;2.65;80.19;101145.53;5055379;28;20220;-68
2021/01/03 04:07:12;;;;;;;22.80;7.40;;;1.80;99.90;;;2.64;80.03;101146.38;5056764;28;20192;-68
2021/01/03 04:09:38;;;;;;;23.80;7.60;;;1.80;99.90;;;2.63;79.81;101145.50;5051517;28;20239;-68
2021/01/03 04:12:05;;;;;;;22.30;6.50;;;1.80;99.90;;;2.61;79.49;101152.41;5053129;28;20209;-68
2021/01/03 04:14:32;;;;;;;20.00;6.10;;;1.80;99.90;;;2.62;80.14;101155.84;5053399;28;20677;-68
2021/01/03 04:17:01;;;;;;;22.10;6.33;;;1.80;99.90;;;2.63;79.96;101145.50;5062430;28;20188;-67
2021/01/03 04:19:29;;;;;;;19.50;5.77;;;1.80;99.90;;;2.63;79.91;101145.50;5064360;28;20672;-68
2021/01/03 04:21:58;;;;;;;17.40;6.10;;;1.80;99.90;;;2.67;80.03;101143.78;5072848;28;20215;-66
2021/01/03 04:24:26;;;;;;;17.33;6.80;;;1.80;99.90;;;2.66;79.73;101144.66;5071661;28;20216;-68
2021/01/03 04:26:55;;;;;;;21.00;6.60;;;1.90;99.90;;;2.68;79.68;101143.78;5073279;28;20185;-68
2021/01/03 04:29:22;;;;;;;21.47;6.73;;;1.90;99.90;;;2.68;79.67;101132.63;5072756;28;20177;-68
2021/01/03 04:31:55;;;;;;;22.00;6.90;;;1.90;99.90;;;2.69;79.91;101134.34;5073235;28;20696;-67
2021/01/03 04:34:22;;;;;;;20.33;6.43;;;1.90;99.90;;;2.70;79.86;101133.50;5073255;28;20189;-67
2021/01/03 04:36:50;;;;;;;20.83;6.43;;;1.90;99.90;;;2.71;79.99;101133.50;5073295;28;20241;-68
2021/01/03 04:39:17;;;;;;;20.40;6.67;;;1.90;99.90;;;2.71;79.88;101130.03;5071770;28;20200;-67
2021/01/03 04:41:47;;;;;;;22.47;6.77;;;1.90;99.90;;;2.72;79.63;101131.75;5073082;28;20266;-68
2021/01/03 04:44:22;;;;;;;23.27;7.40;;;1.90;99.90;;;2.73;79.73;101136.06;5073107;28;20184;-67
2021/01/03 04:46:49;;;;;;;24.25;7.60;;;1.90;99.90;;;2.79;79.66;101134.34;5072917;28;20645;-67
2021/01/03 04:49:26;;;;;;;25.33;7.70;;;2.00;99.90;;;2.84;79.72;101130.03;5064384;28;20192;-68
2021/01/03 04:52:51;;;;;;;23.93;7.63;;;2.00;99.90;;;2.88;79.79;101131.75;5073090;28;20196;-68
2021/01/03 04:55:21;;;;;;;23.37;6.27;;;2.00;99.90;;;2.91;79.37;101136.06;5072877;28;20652;-68
2021/01/03 04:58:01;;;;;;;21.67;6.87;;;2.10;99.90;;;2.92;79.62;101145.53;5072867;28;20199;-68
2021/01/03 05:00:36;;;;;;;21.43;7.37;;;2.10;99.90;;;2.89;79.62;101130.03;5088352;28;20253;-68
2021/01/03 05:03:58;;;;;;;19.13;6.07;;;2.10;99.90;;;2.89;79.40;101127.44;5072715;28;20211;-68
2021/01/03 05:06:26;;;;;;;18.97;6.57;;;2.10;99.90;;;2.87;79.97;101124.00;5050366;28;20223;-68
2021/01/03 05:08:58;;;;;;;19.73;6.50;;;2.10;99.90;;;2.87;79.43;101129.16;5049913;28;20197;-68
2021/01/03 05:11:48;;;;;;;23.27;7.07;;;2.10;99.90;;;2.88;79.45;101125.75;5064706;28;20200;-68
2021/01/03 05:14:23;;;;;;;23.33;7.33;;;2.10;99.90;;;2.85;79.47;101126.59;5072656;28;20184;-68
2021/01/03 05:16:53;;;;;;;27.53;9.50;;;2.10;99.90;;;2.84;79.59;101113.69;5072288;28;20594;-68
2021/01/03 05:19:20;;;;;;;22.67;7.80;;;2.00;99.90;;;2.83;80.18;101117.13;5063267;28;20188;-67
2021/01/03 05:21:49;;;;;;;19.60;7.80;;;2.10;99.90;;;2.82;80.19;101115.38;5071577;28;20257;-68
2021/01/03 05:24:16;;;;;;;20.37;6.73;;;2.00;99.90;;;2.79;80.21;101110.22;5072054;28;20192;-68
2021/01/03 05:26:43;;;;;;;20.80;7.10;;;2.00;99.90;;;2.77;80.49;101117.97;5072307;28;20203;-68
2021/01/03 05:29:20;;;;;;;21.63;7.20;;;2.00;99.90;;;2.73;80.84;101100.75;5072045;28;20538;-68
2021/01/03 05:31:57;;;;;;;25.43;8.33;;;1.90;99.90;;;2.72;81.00;101109.38;5070805;28;20215;-68
2021/01/03 05:34:33;;;;;;;23.77;8.07;;;1.90;99.90;;;2.70;81.43;101100.75;5072167;28;20249;-68
2021/01/03 05:37:10;;;;;;;22.03;7.63;;;1.90;99.90;;;2.68;81.28;101106.78;5072151;28;20179;-68
2021/01/03 05:39:38;;;;;;;20.83;7.30;;;1.90;99.90;;;2.68;81.89;101104.22;5070604;28;20600;-67
2021/01/03 05:42:34;;;;;;;21.92;7.80;;;1.80;99.90;;;2.70;81.90;101099.91;5071931;28;20599;-67
2021/01/03 05:45:06;;;;;;;20.23;6.70;;;1.90;99.90;;;2.70;82.42;101105.91;5070624;28;20216;-67
2021/01/03 05:47:38;;;;;;;22.00;7.37;;;1.80;99.90;;;2.68;82.29;101102.47;5071329;28;20196;-68
2021/01/03 05:50:31;;;;;;;24.87;7.00;;;1.80;99.90;;;2.69;82.68;101098.16;5063180;28;20208;-68
2021/01/03 05:53:08;;;;;;;21.23;6.57;;;1.80;99.90;;;2.69;82.87;101101.63;5072460;28;20782;-68
2021/01/03 05:55:37;;;;;;;19.23;6.77;;;1.80;99.90;;;2.66;82.78;101093.00;5071748;28;20184;-68
2021/01/03 05:58:18;;;;;;;21.33;6.70;;;1.80;99.90;;;2.65;83.07;101099.06;5071612;28;20234;-67
2021/01/03 06:00:46;;;;;;;19.07;6.47;;;1.80;99.90;;;2.64;83.01;101090.44;5070326;28;20249;-68
2021/01/03 06:03:23;;;;;;;19.87;6.40;;;1.80;99.90;;;2.63;83.32;101099.03;5071325;28;20689;-68
2021/01/03 06:05:53;;;;;;;18.87;5.97;;;1.80;99.90;;;2.62;83.46;101091.28;5071298;28;20211;-68
2021/01/03 06:08:25;;;;;;;25.07;7.90;;;1.80;99.90;;;2.62;83.61;101092.16;5071295;28;20192;-68
2021/01/03 06:11:09;;;;;;;21.33;6.83;;;1.70;99.90;;;2.63;83.60;101087.84;5071638;28;20181;-68
2021/01/03 06:13:50;;;;;;;21.30;6.80;;;1.80;99.90;;;2.62;83.82;101091.28;5071390;28;20180;-67
2021/01/03 06:16:21;;;;;;;23.87;6.93;;;1.70;99.90;;;2.63;84.12;101082.69;5071070;28;20687;-68
2021/01/03 06:18:51;;;;;;;19.13;6.53;;;1.70;99.90;;;2.62;84.29;101086.09;5061963;28;20188;-67
2021/01/03 06:21:28;;;;;;;18.03;6.17;;;1.70;99.90;;;2.61;84.47;101090.44;5051287;28;20637;-68
2021/01/03 06:24:11;;;;;;;19.13;5.93;;;1.70;99.90;;;2.61;84.44;101085.28;5051062;28;20207;-68
2021/01/03 06:26:46;;;;;;;19.73;5.87;;;1.70;99.90;;;2.60;84.65;101086.13;5049973;28;20189;-68
2021/01/03 06:29:28;;;;;;;22.03;6.13;;;1.60;99.90;;;2.61;84.88;101081.81;5051011;28;20656;-69
2021/01/03 06:32:41;;;;;;;17.37;5.87;;;1.60;99.90;;;2.56;84.93;101082.66;5049275;28;20612;-68
2021/01/03 06:35:22;;;;;;;22.37;6.00;;;1.60;99.90;;;2.56;85.13;101079.25;5051271;28;20192;-68
2021/01/03 06:37:55;;;;;;;14.13;5.37;;;1.60;99.90;;;2.54;85.47;101076.63;5050981;28;20185;-68
2021/01/03 06:40:31;;;;;;;17.60;5.57;;;1.60;99.90;;;2.53;85.35;101077.50;5050845;28;20193;-68
2021/01/03 06:43:35;;;;;;;17.37;6.23;;;1.60;99.90;;;2.51;85.63;101081.81;5050885;28;20323;-68
2021/01/03 06:47:08;;;;;;;19.90;5.87;;;1.60;99.90;;;2.53;85.94;101077.50;5052464;28;20620;-67
2021/01/03 06:50:02;;;;;;;21.07;6.00;;;1.60;99.90;;;2.58;86.17;101079.25;5058773;28;20673;-67
2021/01/03 06:53:20;;;;;;;19.23;5.67;;;1.60;99.90;;;2.55;86.09;101070.63;5049623;28;20755;-68
2021/01/03 06:56:34;;;;;;;14.53;5.30;;;1.60;99.90;;;2.51;86.39;101074.06;5028602;28;20194;-68
2021/01/03 06:59:34;;;;;;;16.47;5.47;;;1.50;99.90;;;2.52;86.44;101070.63;5007837;28;20300;-67
2021/01/03 07:02:00;;;;;;;18.47;5.50;;;1.50;99.90;;;2.53;86.78;101072.34;5050626;28;20870;-68
2021/01/03 07:04:36;;;;;;;15.43;5.30;;;1.50;99.90;;;2.55;86.63;101068.03;5050651;28;20208;-68
2021/01/03 07:07:13;;;;;;;16.10;4.93;;;1.50;99.90;;;2.58;86.91;101063.75;5050793;28;20253;-68
2021/01/03 07:09:57;;;;;;;17.53;5.13;;;1.50;99.90;;;2.58;86.91;101071.50;5049274;28;20554;-68
2021/01/03 07:12:40;;;;;;;17.10;5.50;;;1.50;99.90;;;2.58;86.93;101066.31;5050781;28;20215;-67
2021/01/03 07:15:15;;;;;;;18.73;6.33;;;1.50;99.90;;;2.56;87.29;101074.09;5049489;28;20208;-68
2021/01/03 07:18:19;;;;;;;21.53;6.63;;;1.50;99.90;;;2.55;87.44;101069.75;5065618;28;20196;-68
2021/01/03 07:20:56;;;;;;;20.37;6.10;;;1.50;99.90;;;2.54;87.56;101073.22;5067545;28;20187;-69
2021/01/03 07:23:32;;;;;;;16.77;6.10;;;1.40;99.90;;;2.53;87.98;101076.63;5070456;28;20353;-68
2021/01/03 07:26:13;;;;;;;20.63;6.87;;;1.40;99.90;;;2.50;88.13;101077.50;5070631;28;20211;-68
2021/01/03 07:28:49;;;;;;;21.07;6.73;;;1.30;99.90;;;2.50;88.44;101074.06;5070433;28;20191;-68
2021/01/03 07:31:43;;;;;;;16.30;5.90;;;1.30;99.90;;;2.50;88.56;101076.63;5070433;28;20184;-68
2021/01/03 07:34:17;;;;;;;17.20;5.73;;;1.30;99.90;;;2.48;88.81;101074.06;5070690;28;20184;-68
2021/01/03 07:36:50;;;;;;;18.67;6.27;;;1.30;99.90;;;2.46;89.25;101078.34;5070333;28;20196;-68
2021/01/03 07:39:28;;;;;;;19.00;6.30;;;1.30;99.90;;;2.42;89.68;101078.34;5070463;28;20196;-67
2021/01/03 07:42:22;;;;;;;19.53;6.07;;;1.40;99.90;;;2.38;90.11;101081.78;5070527;28;20208;-66
2021/01/03 07:44:51;;;;;;;19.67;6.30;;;1.30;99.90;;;2.34;90.47;101075.75;5073218;28;20204;-68
2021/01/03 07:47:37;;;;;;;19.47;5.70;;;1.30;99.90;;;2.33;90.44;101078.34;5073933;28;20199;-68
2021/01/03 07:50:34;;;;;;;21.87;6.53;;;1.30;99.90;;;2.33;90.92;101078.34;5065390;28;20207;-68
2021/01/03 07:53:24;;;;;;;20.10;6.27;;;1.30;99.90;;;2.33;91.29;101079.22;5072736;28;20212;-68
2021/01/03 07:55:50;;;;;;;19.90;5.73;;;1.30;99.90;;;2.33;91.32;101083.50;5074120;28;20202;-68
2021/01/03 07:58:20;;;;;;;20.80;6.60;;;1.30;99.90;;;2.32;91.37;101077.50;5072447;28;20615;-67
2021/01/03 08:00:53;;;;;;;17.97;5.87;;;1.30;99.90;;;2.32;91.39;101077.50;5073904;28;20192;-67
2021/01/03 08:03:24;;;;;;;21.27;6.60;;;1.20;99.90;;;2.31;91.66;101083.50;5072462;28;20266;-68
2021/01/03 08:05:50;;;;;;;23.57;7.87;;;1.20;99.90;;;2.31;91.64;101086.06;5073761;28;20203;-67
2021/01/03 08:08:21;;;;;;;20.63;6.57;;;1.20;99.90;;;2.30;91.95;101084.38;5072382;28;20209;-67
2021/01/03 08:10:51;;;;;;;24.07;7.40;;;1.20;99.90;;;2.28;92.31;101091.25;5074907;28;20263;-68
2021/01/03 08:13:25;;;;;;;17.90;6.10;;;1.10;99.90;;;2.24;92.42;101092.09;5075230;28;20219;-68
2021/01/03 08:15:56;;;;;;;17.87;6.20;;;1.10;99.90;;;2.23;92.16;101094.66;5073637;28;20172;-67
2021/01/03 08:18:22;;;;;;;20.13;7.37;;;1.10;99.90;;;2.19;92.26;101104.13;5067652;28;20660;-68
2021/01/03 08:20:50;;;;;;;22.73;6.63;;;1.00;99.90;;;2.15;92.65;101104.97;5070965;28;20233;-67
2021/01/03 08:23:24;;;;;;;19.97;6.83;;;0.90;99.90;;;2.15;92.99;101104.13;5073056;28;20216;-68
2021/01/03 08:26:08;;;;;;;18.13;6.77;;;0.90;99.90;;;2.15;93.02;101094.66;5073584;28;20215;-67
2021/01/03 08:28:43;;;;;;;21.80;7.37;;;0.90;99.90;;;2.16;93.26;101086.03;5071871;28;20210;-67
2021/01/03 08:31:13;;;;;;;18.53;6.33;;;0.90;99.90;;;2.17;93.34;101089.50;5073444;28;20684;-68
2021/01/03 08:33:42;;;;;;;20.77;6.97;;;0.90;99.90;;;2.20;93.76;101100.69;5073453;28;20188;-67
2021/01/03 08:36:19;;;;;;;20.83;6.80;;;0.90;99.90;;;2.19;93.83;101080.88;5073365;28;20196;-67
2021/01/03 08:38:46;;;;;;;19.63;6.30;;;0.90;99.90;;;2.17;93.73;101082.63;5073004;28;20180;-67
2021/01/03 08:41:18;;;;;;;23.70;7.30;;;0.90;99.90;;;2.15;93.81;101099.81;5071719;28;20199;-67
2021/01/03 08:43:46;;;;;;;25.40;7.67;;;0.80;99.90;;;2.15;94.00;101092.09;5071869;28;20189;-67
2021/01/03 08:46:28;;;;;;;22.27;7.57;;;0.90;99.90;;;2.16;94.46;101090.38;5073067;28;20757;-68
2021/01/03 08:49:02;;;;;;;21.67;7.83;;;0.90;99.90;;;2.13;94.21;101093.78;5064058;28;20208;-68
2021/01/03 08:51:28;;;;;;;23.37;7.87;;;0.90;99.90;;;2.13;94.62;101088.63;5071745;28;20192;-68
2021/01/03 08:54:00;;;;;;;21.17;7.57;;;0.90;99.90;;;2.11;94.58;101085.19;5072794;28;20223;-67
2021/01/03 08:56:32;;;;;;;21.63;8.93;;;0.90;99.90;;;2.10;94.95;101088.63;5072847;28;20189;-67
2021/01/03 08:59:00;;;;;;;23.47;8.23;;;0.90;99.90;;;2.09;94.70;101084.31;5072580;28;20192;-67
2021/01/03 09:01:31;;;;;;;24.67;8.37;;;0.80;99.90;;;2.09;95.11;101091.22;5072583;28;20188;-67
2021/01/03 09:04:03;;;;;;;25.33;8.77;;;0.80;99.90;;;2.06;95.05;101078.31;5072687;28;20191;-68
2021/01/03 09:06:31;;;;;;;24.63;8.47;;;0.80;99.90;;;2.07;95.10;101091.22;5072655;28;20306;-67
2021/01/03 09:09:08;;;;;;;25.33;8.40;;;0.80;99.90;;;2.09;95.33;101086.88;5072435;28;20188;-67
2021/01/03 09:11:47;;;;;;;23.40;7.83;;;0.80;99.90;;;2.07;95.32;101096.38;5072405;28;20210;-68
2021/01/03 09:14:26;;;;;;;23.50;8.10;;;0.80;99.90;;;2.04;95.45;101080.84;5072332;28;20192;-67
2021/01/03 09:16:58;;;;;;;25.80;9.20;;;0.80;99.90;;;2.03;95.58;101099.78;5071500;28;20625;-67
2021/01/03 09:19:31;;;;;;;25.80;9.63;;;0.80;99.90;;;2.01;95.66;101091.16;5064258;28;20192;-66
2021/01/03 09:22:02;;;;;;;20.47;8.13;;;0.80;99.90;;;2.02;95.89;101085.16;5072157;28;20258;-67
2021/01/03 09:24:32;;;;;;;23.10;8.97;;;0.80;99.90;;;2.03;95.94;101091.16;5072421;28;20188;-67
2021/01/03 09:27:02;;;;;;;22.67;8.53;;;0.80;99.90;;;2.05;96.06;101092.03;5072416;28;20192;-67
2021/01/03 09:29:32;;;;;;;27.60;10.47;;;0.80;99.90;;;2.03;95.85;101092.03;5070861;28;20295;-67
2021/01/03 09:32:06;;;;;;;28.33;10.27;;;0.80;99.90;;;2.01;96.22;101092.91;5071959;28;20211;-67
2021/01/03 09:34:47;;;;;;;27.70;9.50;;;0.80;99.90;;;2.01;96.20;101091.16;5070725;28;20188;-67
2021/01/03 09:37:25;;;;;;;29.40;10.37;;;0.80;99.90;;;2.00;96.27;101096.31;5072050;28;20660;-67
2021/01/03 09:40:27;;;;;;;21.40;7.70;;;0.80;99.90;;;1.99;96.33;101090.28;5071981;28;20188;-67
2021/01/03 09:43:27;;;;;;;21.03;8.07;;;0.80;99.90;;;1.99;96.17;101089.47;5070469;28;20313;-68
2021/01/03 09:46:22;;;;;;;26.33;9.10;;;0.80;99.90;;;1.98;96.32;101098.91;5071899;28;20299;-68
2021/01/03 09:48:48;;;;;;;20.53;7.03;;;0.70;99.90;;;1.96;96.57;101095.44;5084524;28;20277;-68
2021/01/03 09:51:33;;;;;;;20.37;7.23;;;0.70;99.90;;;1.95;96.53;101086.00;5051696;28;20185;-68
2021/01/03 09:54:10;;;;;;;19.87;6.93;;;0.80;99.90;;;1.94;96.70;101088.59;5051876;28;20565;-68
2021/01/03 09:56:39;;;;;;;32.40;9.43;;;0.80;99.90;;;1.95;96.69;101086.00;5051754;28;20189;-69
2021/01/03 09:59:14;;;;;;;26.13;7.63;;;0.70;99.90;;;1.96;96.67;101077.41;5051424;28;20184;-68
2021/01/03 10:01:43;;;;;;;17.77;6.30;;;0.70;99.90;;;1.93;96.58;101077.41;5050348;28;20211;-68
2021/01/03 10:04:21;;;;;;;19.73;6.73;;;0.70;99.90;;;1.92;96.62;101080.84;5050220;28;20192;-69
2021/01/03 10:06:52;;;;;;;18.23;6.90;;;0.70;99.90;;;1.92;96.95;101077.38;5050926;28;20273;-68
2021/01/03 10:09:33;;;;;;;21.47;7.33;;;0.70;99.90;;;1.93;96.83;101087.72;5051571;28;20189;-69
2021/01/03 10:12:16;;;;;;;21.07;7.70;;;0.70;99.90;;;1.94;96.87;101086.84;5051448;28;20251;-68
2021/01/03 10:14:43;;;;;;;21.03;7.00;;;0.80;99.90;;;1.95;97.21;101090.28;5051786;28;20184;-69
2021/01/03 10:17:16;;;;;;;18.40;6.53;;;0.70;99.90;;;1.94;97.14;101094.59;5055651;28;20552;-70
2021/01/03 10:19:43;;;;;;;18.53;6.43;;;0.70;99.90;;;1.92;97.35;101088.59;5062883;28;20188;-70
2021/01/03 10:22:29;;;;;;;16.43;5.80;;;0.70;99.90;;;1.93;97.49;101086.84;5069604;28;20223;-69
2021/01/03 10:24:57;;;;;;;17.73;6.87;;;0.70;99.90;;;1.94;97.30;101081.69;5070207;28;20245;-70
2021/01/03 10:27:24;;;;;;;22.67;7.97;;;0.70;99.90;;;1.95;97.14;101079.97;5071254;28;20192;-70
2021/01/03 10:29:50;;;;;;;19.27;6.17;;;0.80;99.90;;;1.98;97.45;101072.25;5070044;28;20192;-70
2021/01/03 10:32:17;;;;;;;19.20;5.90;;;0.80;99.90;;;1.98;97.33;101069.66;5070919;28;20208;-70
2021/01/03 10:34:44;;;;;;;23.27;7.67;;;0.80;99.90;;;1.98;97.50;101075.69;5071466;28;20184;-70
2021/01/03 10:37:10;;;;;;;22.53;5.80;;;0.80;99.90;;;1.98;97.63;101072.25;5071362;28;20188;-71
2021/01/03 10:39:36;;;;;;;17.50;6.33;;;0.80;99.90;;;1.98;97.22;101061.91;5071096;28;20229;-71
2021/01/03 10:42:06;;;;;;;24.00;6.57;;;0.80;99.90;;;1.98;97.33;101067.94;5071112;28;20207;-71
2021/01/03 10:44:32;;;;;;;19.87;6.93;;;0.80;99.90;;;2.00;97.46;101055.91;5069984;28;20241;-71
2021/01/03 10:46:59;;;;;;;21.13;6.00;;;0.80;99.90;;;2.00;97.60;101058.50;5069548;28;20224;-71